sensor_id;sensor_type;location;lat;lon;timestamp;P1;durP1;ratioP1;P2;durP2;ratioP2
8213;SDS011;4148;47.974;7.824;2024-01-15T00:02:21;35.13;;;16.60;;
8213;SDS011;4148;47.974;7.824;2024-01-15T00:04:49;35.60;;;17.73;;
8213;SDS011;4148;47.974;7.824;2024-01-15T00:07:17;37.37;;;17.80;;
8213;SDS011;4148;47.974;7.824;2024-01-15T00:09:44;38.13;;;15.53;;
8213;SDS011;4148;47.974;7.824;2024-01-15T00:12:12;34.73;;;16.13;;
8213;SDS011;4148;47.974;7.824;2024-01-15T00:14:40;36.47;;;16.37;;
8213;SDS011;4148;47.974;7.824;2024-01-15T00:17:08;36.07;;;15.23;;
8213;SDS011;4148;47.974;7.824;2024-01-15T00:19:37;45.50;;;17.23;;
8213;SDS011;4148;47.974;7.824;2024-01-15T00:22:05;37.37;;;16.67;;
8213;SDS011;4148;47.974;7.824;2024-01-15T00:24:33;37.17;;;15.90;;
8213;SDS011;4148;47.974;7.824;2024-01-15T00:27:01;33.17;;;15.03;;
8213;SDS011;4148;47.974;7.824;2024-01-15T00:29:29;33.83;;;15.80;;
8213;SDS011;4148;47.974;7.824;2024-01-15T00:31:57;31.47;;;15.17;;
8213;SDS011;4148;47.974;7.824;2024-01-15T00:34:25;30.67;;;15.63;;
8213;SDS011;4148;47.974;7.824;2024-01-15T00:36:54;38.73;;;16.63;;
8213;SDS011;4148;47.974;7.824;2024-01-15T00:39:22;33.70;;;15.73;;
8213;SDS011;4148;47.974;7.824;2024-01-15T00:41:50;37.20;;;16.17;;
8213;SDS011;4148;47.974;7.824;2024-01-15T00:44:18;39.40;;;16.07;;
8213;SDS011;4148;47.974;7.824;2024-01-15T00:46:46;35.70;;;15.53;;
8213;SDS011;4148;47.974;7.824;2024-01-15T00:49:13;36.37;;;16.30;;
8213;SDS011;4148;47.974;7.824;2024-01-15T00:51:42;40.73;;;17.53;;
8213;SDS011;4148;47.974;7.824;2024-01-15T00:54:11;39.40;;;16.20;;
8213;SDS011;4148;47.974;7.824;2024-01-15T00:56:39;34.13;;;16.70;;
8213;SDS011;4148;47.974;7.824;2024-01-15T00:59:07;32.70;;;15.37;;
8213;SDS011;4148;47.974;7.824;2024-01-15T01:01:36;37.07;;;17.70;;
8213;SDS011;4148;47.974;7.824;2024-01-15T01:04:04;40.43;;;16.73;;
8213;SDS011;4148;47.974;7.824;2024-01-15T01:06:32;35.23;;;16.37;;
8213;SDS011;4148;47.974;7.824;2024-01-15T01:09:00;37.10;;;16.07;;
8213;SDS011;4148;47.974;7.824;2024-01-15T01:11:30;33.87;;;15.73;;
8213;SDS011;4148;47.974;7.824;2024-01-15T01:13:57;39.43;;;17.07;;
8213;SDS011;4148;47.974;7.824;2024-01-15T01:16:26;35.10;;;15.17;;
8213;SDS011;4148;47.974;7.824;2024-01-15T01:18:54;32.60;;;14.77;;
8213;SDS011;4148;47.974;7.824;2024-01-15T01:21:22;30.67;;;14.40;;
8213;SDS011;4148;47.974;7.824;2024-01-15T01:23:50;36.00;;;14.40;;
8213;SDS011;4148;47.974;7.824;2024-01-15T01:26:18;32.80;;;15.97;;
8213;SDS011;4148;47.974;7.824;2024-01-15T01:28:47;34.13;;;13.97;;
8213;SDS011;4148;47.974;7.824;2024-01-15T01:31:15;33.23;;;14.20;;
8213;SDS011;4148;47.974;7.824;2024-01-15T01:33:44;30.90;;;13.07;;
8213;SDS011;4148;47.974;7.824;2024-01-15T01:36:12;38.10;;;14.33;;
8213;SDS011;4148;47.974;7.824;2024-01-15T01:38:40;31.80;;;13.47;;
8213;SDS011;4148;47.974;7.824;2024-01-15T01:41:08;27.43;;;12.47;;
8213;SDS011;4148;47.974;7.824;2024-01-15T01:43:36;28.30;;;13.47;;
8213;SDS011;4148;47.974;7.824;2024-01-15T01:46:05;28.10;;;12.87;;
8213;SDS011;4148;47.974;7.824;2024-01-15T01:48:34;26.30;;;11.07;;
8213;SDS011;4148;47.974;7.824;2024-01-15T01:51:04;31.70;;;11.83;;
8213;SDS011;4148;47.974;7.824;2024-01-15T01:53:32;24.47;;;11.77;;
8213;SDS011;4148;47.974;7.824;2024-01-15T01:56:02;26.07;;;10.57;;
8213;SDS011;4148;47.974;7.824;2024-01-15T01:58:31;24.97;;;10.60;;
8213;SDS011;4148;47.974;7.824;2024-01-15T02:01:00;23.80;;;10.80;;
8213;SDS011;4148;47.974;7.824;2024-01-15T02:03:29;22.60;;;9.73;;
8213;SDS011;4148;47.974;7.824;2024-01-15T02:05:58;21.20;;;10.23;;
8213;SDS011;4148;47.974;7.824;2024-01-15T02:08:27;22.40;;;11.10;;
8213;SDS011;4148;47.974;7.824;2024-01-15T02:10:55;22.07;;;9.90;;
8213;SDS011;4148;47.974;7.824;2024-01-15T02:13:23;23.13;;;10.07;;
8213;SDS011;4148;47.974;7.824;2024-01-15T02:15:51;24.33;;;11.00;;
8213;SDS011;4148;47.974;7.824;2024-01-15T02:18:19;25.03;;;11.43;;
8213;SDS011;4148;47.974;7.824;2024-01-15T02:20:48;30.57;;;12.33;;
8213;SDS011;4148;47.974;7.824;2024-01-15T02:23:18;30.13;;;13.53;;
8213;SDS011;4148;47.974;7.824;2024-01-15T02:25:46;33.20;;;16.97;;
8213;SDS011;4148;47.974;7.824;2024-01-15T02:28:14;38.40;;;17.63;;
8213;SDS011;4148;47.974;7.824;2024-01-15T02:30:44;38.27;;;16.97;;
8213;SDS011;4148;47.974;7.824;2024-01-15T02:33:12;33.97;;;15.90;;
8213;SDS011;4148;47.974;7.824;2024-01-15T02:35:40;33.77;;;15.90;;
8213;SDS011;4148;47.974;7.824;2024-01-15T02:38:08;34.70;;;16.47;;
8213;SDS011;4148;47.974;7.824;2024-01-15T02:40:38;46.17;;;17.50;;
8213;SDS011;4148;47.974;7.824;2024-01-15T02:43:06;40.73;;;17.33;;
8213;SDS011;4148;47.974;7.824;2024-01-15T02:45:34;32.97;;;16.10;;
8213;SDS011;4148;47.974;7.824;2024-01-15T02:48:02;39.00;;;16.43;;
8213;SDS011;4148;47.974;7.824;2024-01-15T02:50:30;36.47;;;16.60;;
8213;SDS011;4148;47.974;7.824;2024-01-15T02:52:57;32.93;;;14.97;;
8213;SDS011;4148;47.974;7.824;2024-01-15T02:55:25;35.77;;;16.70;;
8213;SDS011;4148;47.974;7.824;2024-01-15T02:57:57;34.57;;;15.20;;
8213;SDS011;4148;47.974;7.824;2024-01-15T03:00:25;34.17;;;15.57;;
8213;SDS011;4148;47.974;7.824;2024-01-15T03:02:52;31.20;;;14.93;;
8213;SDS011;4148;47.974;7.824;2024-01-15T03:05:21;30.90;;;14.47;;
8213;SDS011;4148;47.974;7.824;2024-01-15T03:07:49;35.90;;;16.30;;
8213;SDS011;4148;47.974;7.824;2024-01-15T03:10:17;32.80;;;15.33;;
8213;SDS011;4148;47.974;7.824;2024-01-15T03:12:45;33.77;;;16.40;;
8213;SDS011;4148;47.974;7.824;2024-01-15T03:15:14;39.57;;;17.23;;
8213;SDS011;4148;47.974;7.824;2024-01-15T03:17:42;34.17;;;15.67;;
8213;SDS011;4148;47.974;7.824;2024-01-15T03:20:10;35.43;;;15.30;;
8213;SDS011;4148;47.974;7.824;2024-01-15T03:22:39;33.70;;;15.47;;
8213;SDS011;4148;47.974;7.824;2024-01-15T03:25:07;31.83;;;14.90;;
8213;SDS011;4148;47.974;7.824;2024-01-15T03:27:35;33.17;;;15.60;;
8213;SDS011;4148;47.974;7.824;2024-01-15T03:30:03;36.67;;;16.57;;
8213;SDS011;4148;47.974;7.824;2024-01-15T03:32:32;35.20;;;15.87;;
8213;SDS011;4148;47.974;7.824;2024-01-15T03:35:01;34.83;;;16.10;;
8213;SDS011;4148;47.974;7.824;2024-01-15T03:37:29;27.93;;;14.60;;
8213;SDS011;4148;47.974;7.824;2024-01-15T03:39:57;36.33;;;16.13;;
8213;SDS011;4148;47.974;7.824;2024-01-15T03:42:25;31.43;;;14.80;;
8213;SDS011;4148;47.974;7.824;2024-01-15T03:44:52;33.30;;;16.77;;
8213;SDS011;4148;47.974;7.824;2024-01-15T03:47:20;34.83;;;16.53;;
8213;SDS011;4148;47.974;7.824;2024-01-15T03:49:50;32.93;;;15.97;;
8213;SDS011;4148;47.974;7.824;2024-01-15T03:52:18;33.13;;;16.00;;
8213;SDS011;4148;47.974;7.824;2024-01-15T03:54:45;32.37;;;16.00;;
8213;SDS011;4148;47.974;7.824;2024-01-15T03:57:13;35.03;;;16.30;;
8213;SDS011;4148;47.974;7.824;2024-01-15T03:59:41;34.60;;;16.73;;
8213;SDS011;4148;47.974;7.824;2024-01-15T04:02:09;35.83;;;17.53;;
8213;SDS011;4148;47.974;7.824;2024-01-15T04:04:40;32.23;;;15.73;;
8213;SDS011;4148;47.974;7.824;2024-01-15T04:07:09;36.80;;;16.53;;
8213;SDS011;4148;47.974;7.824;2024-01-15T04:09:37;37.37;;;16.40;;
8213;SDS011;4148;47.974;7.824;2024-01-15T04:12:05;36.77;;;17.30;;
8213;SDS011;4148;47.974;7.824;2024-01-15T04:14:33;38.27;;;16.20;;
8213;SDS011;4148;47.974;7.824;2024-01-15T04:17:01;38.97;;;18.60;;
8213;SDS011;4148;47.974;7.824;2024-01-15T04:19:29;36.30;;;18.87;;
8213;SDS011;4148;47.974;7.824;2024-01-15T04:21:57;39.27;;;16.77;;
8213;SDS011;4148;47.974;7.824;2024-01-15T04:24:26;36.93;;;17.50;;
8213;SDS011;4148;47.974;7.824;2024-01-15T04:26:54;32.90;;;16.30;;
8213;SDS011;4148;47.974;7.824;2024-01-15T04:29:22;40.97;;;17.83;;
8213;SDS011;4148;47.974;7.824;2024-01-15T04:31:50;40.63;;;17.97;;
8213;SDS011;4148;47.974;7.824;2024-01-15T04:34:20;37.67;;;18.13;;
8213;SDS011;4148;47.974;7.824;2024-01-15T04:36:47;37.50;;;17.73;;
8213;SDS011;4148;47.974;7.824;2024-01-15T04:39:15;44.63;;;19.07;;
8213;SDS011;4148;47.974;7.824;2024-01-15T04:41:45;38.87;;;17.13;;
8213;SDS011;4148;47.974;7.824;2024-01-15T04:44:13;41.67;;;18.50;;
8213;SDS011;4148;47.974;7.824;2024-01-15T04:46:41;44.80;;;18.67;;
8213;SDS011;4148;47.974;7.824;2024-01-15T04:49:10;37.70;;;18.57;;
8213;SDS011;4148;47.974;7.824;2024-01-15T04:51:38;39.27;;;18.07;;
8213;SDS011;4148;47.974;7.824;2024-01-15T04:54:06;36.33;;;17.30;;
8213;SDS011;4148;47.974;7.824;2024-01-15T04:56:34;38.53;;;17.53;;
8213;SDS011;4148;47.974;7.824;2024-01-15T04:59:03;39.70;;;18.07;;
8213;SDS011;4148;47.974;7.824;2024-01-15T05:01:31;40.43;;;18.00;;
8213;SDS011;4148;47.974;7.824;2024-01-15T05:03:59;43.73;;;18.10;;
8213;SDS011;4148;47.974;7.824;2024-01-15T05:06:27;41.33;;;18.27;;
8213;SDS011;4148;47.974;7.824;2024-01-15T05:08:55;43.00;;;19.67;;
8213;SDS011;4148;47.974;7.824;2024-01-15T05:11:23;35.80;;;17.10;;
8213;SDS011;4148;47.974;7.824;2024-01-15T05:13:51;44.07;;;18.67;;
8213;SDS011;4148;47.974;7.824;2024-01-15T05:16:20;41.40;;;19.13;;
8213;SDS011;4148;47.974;7.824;2024-01-15T05:18:48;41.60;;;16.97;;
8213;SDS011;4148;47.974;7.824;2024-01-15T05:21:16;44.13;;;19.10;;
8213;SDS011;4148;47.974;7.824;2024-01-15T05:23:43;34.93;;;18.40;;
8213;SDS011;4148;47.974;7.824;2024-01-15T05:26:11;40.80;;;16.80;;
8213;SDS011;4148;47.974;7.824;2024-01-15T05:28:40;49.47;;;18.60;;
8213;SDS011;4148;47.974;7.824;2024-01-15T05:31:08;41.97;;;17.80;;
8213;SDS011;4148;47.974;7.824;2024-01-15T05:33:38;42.70;;;18.63;;
8213;SDS011;4148;47.974;7.824;2024-01-15T05:36:06;42.57;;;17.83;;
8213;SDS011;4148;47.974;7.824;2024-01-15T05:38:34;44.73;;;19.07;;
8213;SDS011;4148;47.974;7.824;2024-01-15T05:41:02;43.63;;;18.87;;
8213;SDS011;4148;47.974;7.824;2024-01-15T05:43:30;36.93;;;15.10;;
8213;SDS011;4148;47.974;7.824;2024-01-15T05:45:58;32.63;;;15.20;;
8213;SDS011;4148;47.974;7.824;2024-01-15T05:48:26;33.40;;;15.47;;
8213;SDS011;4148;47.974;7.824;2024-01-15T05:50:56;38.13;;;16.73;;
8213;SDS011;4148;47.974;7.824;2024-01-15T05:53:23;38.33;;;15.37;;
8213;SDS011;4148;47.974;7.824;2024-01-15T05:55:51;30.70;;;14.93;;
8213;SDS011;4148;47.974;7.824;2024-01-15T05:58:20;38.60;;;16.70;;
8213;SDS011;4148;47.974;7.824;2024-01-15T06:00:48;37.00;;;16.00;;
8213;SDS011;4148;47.974;7.824;2024-01-15T06:03:16;35.10;;;17.50;;
8213;SDS011;4148;47.974;7.824;2024-01-15T06:05:44;35.80;;;15.80;;
8213;SDS011;4148;47.974;7.824;2024-01-15T06:08:13;41.93;;;16.00;;
8213;SDS011;4148;47.974;7.824;2024-01-15T06:10:41;39.20;;;15.73;;
8213;SDS011;4148;47.974;7.824;2024-01-15T06:13:09;35.00;;;15.63;;
8213;SDS011;4148;47.974;7.824;2024-01-15T06:15:37;34.30;;;14.90;;
8213;SDS011;4148;47.974;7.824;2024-01-15T06:18:05;35.33;;;15.63;;
8213;SDS011;4148;47.974;7.824;2024-01-15T06:20:34;35.53;;;14.80;;
8213;SDS011;4148;47.974;7.824;2024-01-15T06:23:02;32.30;;;13.67;;
8213;SDS011;4148;47.974;7.824;2024-01-15T06:25:31;30.57;;;14.10;;
8213;SDS011;4148;47.974;7.824;2024-01-15T06:27:59;29.27;;;13.10;;
8213;SDS011;4148;47.974;7.824;2024-01-15T06:30:27;37.67;;;15.17;;
8213;SDS011;4148;47.974;7.824;2024-01-15T06:32:56;32.97;;;14.67;;
8213;SDS011;4148;47.974;7.824;2024-01-15T06:35:24;30.13;;;14.03;;
8213;SDS011;4148;47.974;7.824;2024-01-15T06:37:52;30.50;;;12.70;;
8213;SDS011;4148;47.974;7.824;2024-01-15T06:40:20;30.93;;;12.67;;
8213;SDS011;4148;47.974;7.824;2024-01-15T06:42:49;26.07;;;12.53;;
8213;SDS011;4148;47.974;7.824;2024-01-15T06:45:17;31.37;;;12.10;;
8213;SDS011;4148;47.974;7.824;2024-01-15T06:47:45;28.27;;;12.30;;
8213;SDS011;4148;47.974;7.824;2024-01-15T06:50:13;30.10;;;12.73;;
8213;SDS011;4148;47.974;7.824;2024-01-15T06:52:41;26.37;;;11.63;;
8213;SDS011;4148;47.974;7.824;2024-01-15T06:55:09;25.30;;;11.37;;
8213;SDS011;4148;47.974;7.824;2024-01-15T06:57:37;25.40;;;11.73;;
8213;SDS011;4148;47.974;7.824;2024-01-15T07:00:07;25.17;;;12.37;;
8213;SDS011;4148;47.974;7.824;2024-01-15T07:02:35;26.27;;;11.50;;
8213;SDS011;4148;47.974;7.824;2024-01-15T07:05:04;29.03;;;11.17;;
8213;SDS011;4148;47.974;7.824;2024-01-15T07:07:32;25.00;;;10.53;;
8213;SDS011;4148;47.974;7.824;2024-01-15T07:10:00;22.60;;;11.33;;
8213;SDS011;4148;47.974;7.824;2024-01-15T07:12:29;22.57;;;12.33;;
8213;SDS011;4148;47.974;7.824;2024-01-15T07:14:57;24.43;;;11.77;;
8213;SDS011;4148;47.974;7.824;2024-01-15T07:17:26;30.80;;;11.37;;
8213;SDS011;4148;47.974;7.824;2024-01-15T07:19:54;20.20;;;10.17;;
8213;SDS011;4148;47.974;7.824;2024-01-15T07:22:22;23.53;;;11.40;;
8213;SDS011;4148;47.974;7.824;2024-01-15T07:24:50;21.10;;;9.77;;
8213;SDS011;4148;47.974;7.824;2024-01-15T07:27:18;23.33;;;9.80;;
8213;SDS011;4148;47.974;7.824;2024-01-15T07:29:46;24.60;;;10.30;;
8213;SDS011;4148;47.974;7.824;2024-01-15T07:32:15;20.80;;;8.67;;
8213;SDS011;4148;47.974;7.824;2024-01-15T07:34:44;19.40;;;8.80;;
8213;SDS011;4148;47.974;7.824;2024-01-15T07:37:12;16.40;;;7.97;;
8213;SDS011;4148;47.974;7.824;2024-01-15T07:39:40;17.80;;;7.80;;
8213;SDS011;4148;47.974;7.824;2024-01-15T07:42:11;17.40;;;8.10;;
8213;SDS011;4148;47.974;7.824;2024-01-15T07:44:39;16.87;;;7.53;;
8213;SDS011;4148;47.974;7.824;2024-01-15T07:47:07;17.43;;;7.60;;
8213;SDS011;4148;47.974;7.824;2024-01-15T07:49:35;16.60;;;7.57;;
8213;SDS011;4148;47.974;7.824;2024-01-15T07:52:05;10.37;;;6.03;;
8213;SDS011;4148;47.974;7.824;2024-01-15T07:54:33;13.30;;;5.60;;
8213;SDS011;4148;47.974;7.824;2024-01-15T07:57:02;12.33;;;5.50;;
8213;SDS011;4148;47.974;7.824;2024-01-15T07:59:30;9.60;;;5.40;;
8213;SDS011;4148;47.974;7.824;2024-01-15T08:01:58;8.43;;;4.30;;
8213;SDS011;4148;47.974;7.824;2024-01-15T08:04:27;9.50;;;5.00;;
8213;SDS011;4148;47.974;7.824;2024-01-15T08:06:55;7.80;;;4.40;;
8213;SDS011;4148;47.974;7.824;2024-01-15T08:09:25;7.07;;;4.10;;
8213;SDS011;4148;47.974;7.824;2024-01-15T08:11:53;5.13;;;3.17;;
8213;SDS011;4148;47.974;7.824;2024-01-15T08:14:21;8.33;;;4.27;;
8213;SDS011;4148;47.974;7.824;2024-01-15T08:16:49;6.67;;;3.60;;
8213;SDS011;4148;47.974;7.824;2024-01-15T08:19:17;6.60;;;4.13;;
8213;SDS011;4148;47.974;7.824;2024-01-15T08:21:46;9.10;;;5.13;;
8213;SDS011;4148;47.974;7.824;2024-01-15T08:24:14;8.13;;;4.07;;
8213;SDS011;4148;47.974;7.824;2024-01-15T08:26:44;5.70;;;3.67;;
8213;SDS011;4148;47.974;7.824;2024-01-15T08:29:12;4.03;;;2.87;;
8213;SDS011;4148;47.974;7.824;2024-01-15T08:31:40;6.37;;;3.10;;
8213;SDS011;4148;47.974;7.824;2024-01-15T08:34:08;6.30;;;3.27;;
8213;SDS011;4148;47.974;7.824;2024-01-15T08:36:36;5.97;;;3.10;;
8213;SDS011;4148;47.974;7.824;2024-01-15T08:39:04;7.30;;;4.30;;
8213;SDS011;4148;47.974;7.824;2024-01-15T08:41:32;8.23;;;3.80;;
8213;SDS011;4148;47.974;7.824;2024-01-15T08:44:02;8.17;;;4.07;;
8213;SDS011;4148;47.974;7.824;2024-01-15T08:46:30;7.70;;;4.10;;
8213;SDS011;4148;47.974;7.824;2024-01-15T08:48:58;9.93;;;4.60;;
8213;SDS011;4148;47.974;7.824;2024-01-15T08:51:26;9.10;;;5.20;;
8213;SDS011;4148;47.974;7.824;2024-01-15T08:53:54;8.63;;;4.20;;
8213;SDS011;4148;47.974;7.824;2024-01-15T08:56:22;5.67;;;3.60;;
8213;SDS011;4148;47.974;7.824;2024-01-15T08:58:50;5.30;;;3.23;;
8213;SDS011;4148;47.974;7.824;2024-01-15T09:01:19;8.17;;;5.10;;
8213;SDS011;4148;47.974;7.824;2024-01-15T09:03:47;5.33;;;3.23;;
8213;SDS011;4148;47.974;7.824;2024-01-15T09:06:15;8.00;;;4.30;;
8213;SDS011;4148;47.974;7.824;2024-01-15T09:08:44;8.93;;;3.77;;
8213;SDS011;4148;47.974;7.824;2024-01-15T09:11:12;8.27;;;4.03;;
8213;SDS011;4148;47.974;7.824;2024-01-15T09:13:40;7.20;;;4.20;;
8213;SDS011;4148;47.974;7.824;2024-01-15T09:16:08;6.40;;;4.30;;
8213;SDS011;4148;47.974;7.824;2024-01-15T09:18:37;6.60;;;3.83;;
8213;SDS011;4148;47.974;7.824;2024-01-15T09:21:05;7.90;;;4.10;;
8213;SDS011;4148;47.974;7.824;2024-01-15T09:23:33;7.50;;;4.57;;
8213;SDS011;4148;47.974;7.824;2024-01-15T09:26:01;6.17;;;3.80;;
8213;SDS011;4148;47.974;7.824;2024-01-15T09:28:29;7.70;;;4.37;;
8213;SDS011;4148;47.974;7.824;2024-01-15T09:30:57;8.70;;;4.53;;
8213;SDS011;4148;47.974;7.824;2024-01-15T09:33:25;6.30;;;3.73;;
8213;SDS011;4148;47.974;7.824;2024-01-15T09:35:55;8.33;;;4.30;;
8213;SDS011;4148;47.974;7.824;2024-01-15T09:38:22;6.30;;;3.80;;
8213;SDS011;4148;47.974;7.824;2024-01-15T09:40:51;5.93;;;3.77;;
8213;SDS011;4148;47.974;7.824;2024-01-15T09:43:19;6.40;;;4.23;;
8213;SDS011;4148;47.974;7.824;2024-01-15T09:45:47;8.10;;;4.50;;
8213;SDS011;4148;47.974;7.824;2024-01-15T09:48:17;7.57;;;4.43;;
8213;SDS011;4148;47.974;7.824;2024-01-15T09:50:45;8.47;;;4.60;;
8213;SDS011;4148;47.974;7.824;2024-01-15T09:53:14;8.00;;;4.57;;
8213;SDS011;4148;47.974;7.824;2024-01-15T09:55:43;9.17;;;4.60;;
8213;SDS011;4148;47.974;7.824;2024-01-15T09:58:11;9.47;;;5.17;;
8213;SDS011;4148;47.974;7.824;2024-01-15T10:00:39;8.37;;;4.73;;
8213;SDS011;4148;47.974;7.824;2024-01-15T10:03:10;8.30;;;5.10;;
8213;SDS011;4148;47.974;7.824;2024-01-15T10:05:38;10.40;;;5.47;;
8213;SDS011;4148;47.974;7.824;2024-01-15T10:08:06;9.90;;;4.90;;
8213;SDS011;4148;47.974;7.824;2024-01-15T10:10:36;8.73;;;5.30;;
8213;SDS011;4148;47.974;7.824;2024-01-15T10:13:04;12.53;;;6.13;;
8213;SDS011;4148;47.974;7.824;2024-01-15T10:15:33;10.97;;;5.90;;
8213;SDS011;4148;47.974;7.824;2024-01-15T10:18:03;12.23;;;6.00;;
8213;SDS011;4148;47.974;7.824;2024-01-15T10:20:31;11.70;;;6.30;;
8213;SDS011;4148;47.974;7.824;2024-01-15T10:22:59;13.67;;;7.13;;
8213;SDS011;4148;47.974;7.824;2024-01-15T10:25:29;12.00;;;6.00;;
8213;SDS011;4148;47.974;7.824;2024-01-15T10:28:01;11.10;;;5.83;;
8213;SDS011;4148;47.974;7.824;2024-01-15T10:30:31;11.17;;;6.23;;
8213;SDS011;4148;47.974;7.824;2024-01-15T10:33:00;14.67;;;7.00;;
8213;SDS011;4148;47.974;7.824;2024-01-15T10:35:30;14.60;;;7.90;;
8213;SDS011;4148;47.974;7.824;2024-01-15T10:37:58;15.07;;;7.70;;
8213;SDS011;4148;47.974;7.824;2024-01-15T10:40:27;12.57;;;6.80;;
8213;SDS011;4148;47.974;7.824;2024-01-15T10:42:55;20.37;;;9.37;;
8213;SDS011;4148;47.974;7.824;2024-01-15T10:45:25;17.20;;;9.03;;
8213;SDS011;4148;47.974;7.824;2024-01-15T10:47:53;15.17;;;8.77;;
8213;SDS011;4148;47.974;7.824;2024-01-15T10:50:25;18.77;;;10.00;;
8213;SDS011;4148;47.974;7.824;2024-01-15T10:52:53;21.83;;;10.00;;
8213;SDS011;4148;47.974;7.824;2024-01-15T10:55:21;17.93;;;9.40;;
8213;SDS011;4148;47.974;7.824;2024-01-15T10:57:51;19.50;;;10.43;;
8213;SDS011;4148;47.974;7.824;2024-01-15T11:00:21;18.30;;;9.67;;
8213;SDS011;4148;47.974;7.824;2024-01-15T11:02:52;17.40;;;9.23;;
8213;SDS011;4148;47.974;7.824;2024-01-15T11:05:22;17.43;;;9.40;;
8213;SDS011;4148;47.974;7.824;2024-01-15T11:07:50;17.70;;;9.10;;
8213;SDS011;4148;47.974;7.824;2024-01-15T11:10:40;18.40;;;9.57;;
8213;SDS011;4148;47.974;7.824;2024-01-15T11:13:10;17.40;;;9.30;;
8213;SDS011;4148;47.974;7.824;2024-01-15T11:15:57;20.60;;;10.63;;
8213;SDS011;4148;47.974;7.824;2024-01-15T11:18:28;22.20;;;10.90;;
8213;SDS011;4148;47.974;7.824;2024-01-15T11:23:52;19.13;;;10.07;;
8213;SDS011;4148;47.974;7.824;2024-01-15T11:26:33;18.07;;;9.67;;
8213;SDS011;4148;47.974;7.824;2024-01-15T11:29:03;20.87;;;11.10;;
8213;SDS011;4148;47.974;7.824;2024-01-15T11:34:51;20.53;;;10.10;;
8213;SDS011;4148;47.974;7.824;2024-01-15T11:37:28;18.17;;;9.47;;
8213;SDS011;4148;47.974;7.824;2024-01-15T11:40:17;21.17;;;11.10;;
8213;SDS011;4148;47.974;7.824;2024-01-15T11:42:45;18.50;;;9.63;;
8213;SDS011;4148;47.974;7.824;2024-01-15T11:45:15;20.73;;;10.33;;
8213;SDS011;4148;47.974;7.824;2024-01-15T11:48:02;19.50;;;10.17;;
8213;SDS011;4148;47.974;7.824;2024-01-15T11:50:41;22.77;;;11.30;;
8213;SDS011;4148;47.974;7.824;2024-01-15T11:53:14;19.07;;;10.33;;
8213;SDS011;4148;47.974;7.824;2024-01-15T11:55:45;22.03;;;10.17;;
8213;SDS011;4148;47.974;7.824;2024-01-15T11:58:14;19.83;;;10.50;;
8213;SDS011;4148;47.974;7.824;2024-01-15T12:00:43;21.27;;;8.93;;
8213;SDS011;4148;47.974;7.824;2024-01-15T12:03:12;24.80;;;11.67;;
8213;SDS011;4148;47.974;7.824;2024-01-15T12:05:42;23.07;;;10.13;;
8213;SDS011;4148;47.974;7.824;2024-01-15T12:08:10;23.23;;;11.30;;
8213;SDS011;4148;47.974;7.824;2024-01-15T12:10:38;21.97;;;10.57;;
8213;SDS011;4148;47.974;7.824;2024-01-15T12:13:09;19.70;;;10.13;;
8213;SDS011;4148;47.974;7.824;2024-01-15T12:15:38;23.37;;;12.00;;
8213;SDS011;4148;47.974;7.824;2024-01-15T12:18:08;20.93;;;11.17;;
8213;SDS011;4148;47.974;7.824;2024-01-15T12:20:39;18.73;;;10.03;;
8213;SDS011;4148;47.974;7.824;2024-01-15T12:23:10;22.47;;;10.80;;
8213;SDS011;4148;47.974;7.824;2024-01-15T12:25:38;21.03;;;10.93;;
8213;SDS011;4148;47.974;7.824;2024-01-15T12:28:06;18.13;;;10.67;;
8213;SDS011;4148;47.974;7.824;2024-01-15T12:30:34;17.73;;;9.93;;
8213;SDS011;4148;47.974;7.824;2024-01-15T12:33:04;20.33;;;10.60;;
8213;SDS011;4148;47.974;7.824;2024-01-15T12:35:34;16.13;;;8.77;;
8213;SDS011;4148;47.974;7.824;2024-01-15T12:38:02;16.90;;;9.13;;
8213;SDS011;4148;47.974;7.824;2024-01-15T12:40:33;18.93;;;9.37;;
8213;SDS011;4148;47.974;7.824;2024-01-15T12:43:03;17.97;;;9.80;;
8213;SDS011;4148;47.974;7.824;2024-01-15T12:45:32;20.77;;;9.80;;
8213;SDS011;4148;47.974;7.824;2024-01-15T12:48:02;15.53;;;9.50;;
8213;SDS011;4148;47.974;7.824;2024-01-15T12:50:31;19.40;;;9.77;;
8213;SDS011;4148;47.974;7.824;2024-01-15T12:53:00;18.77;;;8.90;;
8213;SDS011;4148;47.974;7.824;2024-01-15T12:55:28;16.80;;;9.80;;
8213;SDS011;4148;47.974;7.824;2024-01-15T12:57:59;18.80;;;9.67;;
8213;SDS011;4148;47.974;7.824;2024-01-15T13:00:27;16.97;;;9.03;;
8213;SDS011;4148;47.974;7.824;2024-01-15T13:02:54;18.93;;;9.70;;
8213;SDS011;4148;47.974;7.824;2024-01-15T13:05:23;16.93;;;8.70;;
8213;SDS011;4148;47.974;7.824;2024-01-15T13:07:54;19.50;;;10.00;;
8213;SDS011;4148;47.974;7.824;2024-01-15T13:10:22;18.60;;;9.53;;
8213;SDS011;4148;47.974;7.824;2024-01-15T13:12:52;17.60;;;9.10;;
8213;SDS011;4148;47.974;7.824;2024-01-15T13:15:21;15.33;;;8.27;;
8213;SDS011;4148;47.974;7.824;2024-01-15T13:17:49;15.43;;;8.73;;
8213;SDS011;4148;47.974;7.824;2024-01-15T13:20:17;18.80;;;9.87;;
8213;SDS011;4148;47.974;7.824;2024-01-15T13:22:45;19.50;;;9.90;;
8213;SDS011;4148;47.974;7.824;2024-01-15T13:25:13;19.03;;;10.20;;
8213;SDS011;4148;47.974;7.824;2024-01-15T13:27:42;20.90;;;10.53;;
8213;SDS011;4148;47.974;7.824;2024-01-15T13:30:11;19.37;;;10.67;;
8213;SDS011;4148;47.974;7.824;2024-01-15T13:32:41;22.73;;;11.93;;
8213;SDS011;4148;47.974;7.824;2024-01-15T13:35:09;21.73;;;11.17;;
8213;SDS011;4148;47.974;7.824;2024-01-15T13:37:40;20.37;;;11.47;;
8213;SDS011;4148;47.974;7.824;2024-01-15T13:40:09;18.53;;;10.97;;
8213;SDS011;4148;47.974;7.824;2024-01-15T13:42:43;22.13;;;11.47;;
8213;SDS011;4148;47.974;7.824;2024-01-15T13:45:12;23.07;;;10.73;;
8213;SDS011;4148;47.974;7.824;2024-01-15T13:47:42;24.27;;;12.50;;
8213;SDS011;4148;47.974;7.824;2024-01-15T13:50:10;20.57;;;10.63;;
8213;SDS011;4148;47.974;7.824;2024-01-15T13:52:39;23.73;;;12.73;;
8213;SDS011;4148;47.974;7.824;2024-01-15T13:55:07;22.93;;;11.10;;
8213;SDS011;4148;47.974;7.824;2024-01-15T13:57:36;25.03;;;12.27;;
8213;SDS011;4148;47.974;7.824;2024-01-15T14:00:04;18.20;;;10.07;;
8213;SDS011;4148;47.974;7.824;2024-01-15T14:02:37;21.60;;;11.37;;
8213;SDS011;4148;47.974;7.824;2024-01-15T14:05:07;22.67;;;11.10;;
8213;SDS011;4148;47.974;7.824;2024-01-15T14:07:35;18.97;;;10.50;;
8213;SDS011;4148;47.974;7.824;2024-01-15T14:10:03;22.40;;;11.20;;
8213;SDS011;4148;47.974;7.824;2024-01-15T14:12:32;22.57;;;11.13;;
8213;SDS011;4148;47.974;7.824;2024-01-15T14:15:00;21.87;;;10.80;;
8213;SDS011;4148;47.974;7.824;2024-01-15T14:17:28;22.87;;;12.00;;
8213;SDS011;4148;47.974;7.824;2024-01-15T14:19:56;26.60;;;12.67;;
8213;SDS011;4148;47.974;7.824;2024-01-15T14:22:26;22.07;;;11.73;;
8213;SDS011;4148;47.974;7.824;2024-01-15T14:24:54;23.40;;;13.20;;
8213;SDS011;4148;47.974;7.824;2024-01-15T14:27:22;22.10;;;11.63;;
8213;SDS011;4148;47.974;7.824;2024-01-15T14:29:49;22.80;;;11.73;;
8213;SDS011;4148;47.974;7.824;2024-01-15T14:32:17;27.73;;;13.90;;
8213;SDS011;4148;47.974;7.824;2024-01-15T14:34:45;20.80;;;10.90;;
8213;SDS011;4148;47.974;7.824;2024-01-15T14:37:14;20.10;;;10.30;;
8213;SDS011;4148;47.974;7.824;2024-01-15T14:39:43;21.90;;;11.73;;
8213;SDS011;4148;47.974;7.824;2024-01-15T14:42:11;19.73;;;10.20;;
8213;SDS011;4148;47.974;7.824;2024-01-15T14:44:39;29.63;;;16.77;;
8213;SDS011;4148;47.974;7.824;2024-01-15T14:47:07;22.20;;;12.10;;
8213;SDS011;4148;47.974;7.824;2024-01-15T14:49:35;24.47;;;12.27;;
8213;SDS011;4148;47.974;7.824;2024-01-15T14:52:03;22.70;;;12.33;;
8213;SDS011;4148;47.974;7.824;2024-01-15T14:54:32;23.90;;;12.10;;
8213;SDS011;4148;47.974;7.824;2024-01-15T14:57:02;22.43;;;12.30;;
8213;SDS011;4148;47.974;7.824;2024-01-15T14:59:30;26.50;;;13.73;;
8213;SDS011;4148;47.974;7.824;2024-01-15T15:01:58;25.70;;;12.60;;
8213;SDS011;4148;47.974;7.824;2024-01-15T15:04:26;21.10;;;12.63;;
8213;SDS011;4148;47.974;7.824;2024-01-15T15:06:54;27.37;;;12.43;;
8213;SDS011;4148;47.974;7.824;2024-01-15T15:09:23;21.57;;;11.20;;